createdAt,value
2023-03-03T00:00:29.057Z,101732.28
2023-03-03T00:03:01.963Z,101729.63
2023-03-03T00:05:28.710Z,101732.88
2023-03-03T00:07:55.296Z,101725.88
2023-03-03T00:10:21.999Z,101724.75
2023-03-03T00:12:50.903Z,101721.91
2023-03-03T00:15:20.694Z,101725.06
2023-03-03T00:17:47.696Z,101726.16
2023-03-03T00:20:37.533Z,101728.50
2023-03-03T00:23:21.264Z,101731.50
2023-03-03T00:25:51.885Z,101724.88
2023-03-03T00:28:27.406Z,101721.41
2023-03-03T00:30:56.264Z,101724.59
2023-03-03T00:33:28.652Z,101728.91
2023-03-03T00:35:57.627Z,101737.41
2023-03-03T00:38:24.420Z,101741.03
2023-03-03T00:40:51.542Z,101730.41
2023-03-03T00:43:27.981Z,101722.72
2023-03-03T00:45:56.820Z,101734.66
2023-03-03T00:48:46.950Z,101732.28
2023-03-03T00:51:23.076Z,101737.56
2023-03-03T00:53:50.849Z,101737.19
2023-03-03T00:56:17.525Z,101730.00
2023-03-03T00:58:45.923Z,101722.59
2023-03-03T01:01:12.866Z,101715.69
2023-03-03T01:03:45.324Z,101715.91
2023-03-03T01:06:12.812Z,101717.59
2023-03-03T01:08:39.589Z,101721.41
2023-03-03T01:11:16.356Z,101729.41
2023-03-03T01:13:47.866Z,101731.50
2023-03-03T01:16:14.675Z,101730.00
2023-03-03T01:18:42.073Z,101732.44
2023-03-03T01:21:09.983Z,101728.09
2023-03-03T01:23:36.697Z,101721.69
2023-03-03T01:26:04.667Z,101725.72
2023-03-03T01:28:33.229Z,101721.31
2023-03-03T01:31:05.977Z,101718.66
2023-03-03T01:33:35.218Z,101725.97
2023-03-03T01:36:02.676Z,101722.81
2023-03-03T01:38:29.641Z,101721.63
2023-03-03T01:40:59.596Z,101720.41
2023-03-03T01:43:28.181Z,101725.88
2023-03-03T01:45:57.936Z,101727.16
2023-03-03T01:48:44.722Z,101719.25
2023-03-03T01:51:34.316Z,101707.91
2023-03-03T01:54:02.509Z,101717.75
2023-03-03T01:56:29.938Z,101717.59
2023-03-03T01:59:16.316Z,101724.16
2023-03-03T02:01:43.176Z,101736.75
2023-03-03T02:04:10.148Z,101733.00
2023-03-03T02:06:42.023Z,101723.72
2023-03-03T02:09:53.501Z,101725.66
2023-03-03T02:12:26.368Z,101717.44
2023-03-03T02:14:53.097Z,101721.94
2023-03-03T02:17:19.903Z,101719.19
2023-03-03T02:19:58.193Z,101733.47
2023-03-03T02:22:36.825Z,101737.25
2023-03-03T02:25:18.203Z,101741.47
2023-03-03T02:27:44.967Z,101725.06
2023-03-03T02:30:21.077Z,101730.25
2023-03-03T02:32:47.950Z,101730.66
2023-03-03T02:35:37.318Z,101728.31
2023-03-03T02:38:07.099Z,101723.97
2023-03-03T02:40:40.567Z,101725.22
2023-03-03T02:43:10.169Z,101729.72
2023-03-03T02:45:42.806Z,101739.59
2023-03-03T02:48:09.585Z,101734.59
2023-03-03T02:50:36.445Z,101733.75
2023-03-03T02:53:03.694Z,101734.56
2023-03-03T02:55:30.513Z,101740.72
2023-03-03T02:57:57.491Z,101739.19
2023-03-03T03:00:25.662Z,101737.41
2023-03-03T03:02:52.476Z,101756.06
2023-03-03T03:05:19.599Z,101748.25
2023-03-03T03:07:46.527Z,101745.84
2023-03-03T03:10:13.309Z,101749.88
2023-03-03T03:12:41.574Z,101734.31
2023-03-03T03:15:10.599Z,101740.44
2023-03-03T03:17:38.674Z,101733.38
2023-03-03T03:20:07.092Z,101732.91
2023-03-03T03:22:34.515Z,101743.28
2023-03-03T03:25:01.802Z,101732.94
2023-03-03T03:27:29.066Z,101735.56
2023-03-03T03:29:56.104Z,101733.81
2023-03-03T03:32:23.703Z,101744.31
2023-03-03T03:34:51.015Z,101724.91
2023-03-03T03:37:18.248Z,101723.47
2023-03-03T03:39:46.176Z,101735.38
2023-03-03T03:42:13.848Z,101733.59
2023-03-03T03:44:41.213Z,101726.69
2023-03-03T03:47:08.113Z,101724.59
2023-03-03T03:49:36.604Z,101728.09
2023-03-03T03:52:03.762Z,101729.69
2023-03-03T03:54:32.807Z,101725.53
2023-03-03T03:56:59.616Z,101738.28
2023-03-03T03:59:27.228Z,101734.13
2023-03-03T04:01:54.248Z,101726.84
2023-03-03T04:04:22.276Z,101739.78
2023-03-03T04:06:49.745Z,101730.41
2023-03-03T04:09:16.823Z,101739.44
2023-03-03T04:11:44.772Z,101735.69
2023-03-03T04:14:12.839Z,101736.53
2023-03-03T04:16:39.630Z,101735.94
2023-03-03T04:19:06.506Z,101736.31
2023-03-03T04:21:36.376Z,101749.25
2023-03-03T04:24:03.091Z,101745.31
2023-03-03T04:26:31.646Z,101750.09
2023-03-03T04:29:01.198Z,101742.97
2023-03-03T04:31:29.071Z,101739.50
2023-03-03T04:33:56.107Z,101732.81
2023-03-03T04:36:23.434Z,101741.53
2023-03-03T04:38:50.275Z,101722.97
2023-03-03T04:41:18.022Z,101725.25
2023-03-03T04:43:45.483Z,101726.84
2023-03-03T04:46:13.416Z,101738.56
2023-03-03T04:48:40.292Z,101733.09
2023-03-03T04:51:07.047Z,101733.38
2023-03-03T04:53:36.769Z,101733.75
2023-03-03T04:56:04.924Z,101740.03
2023-03-03T04:58:31.855Z,101735.59
2023-03-03T05:00:58.721Z,101733.50
2023-03-03T05:03:28.266Z,101738.06
2023-03-03T05:05:55.508Z,101736.28
2023-03-03T05:08:22.845Z,101742.38
2023-03-03T05:10:55.794Z,101740.50
2023-03-03T05:13:28.485Z,101748.34
2023-03-03T05:15:56.463Z,101751.75
2023-03-03T05:18:27.795Z,101756.50
2023-03-03T05:20:54.952Z,101764.50
2023-03-03T05:23:22.006Z,101764.13
2023-03-03T05:25:50.940Z,101775.38
2023-03-03T05:28:18.347Z,101764.13
2023-03-03T05:30:45.333Z,101768.47
2023-03-03T05:33:21.627Z,101761.50
2023-03-03T05:35:50.977Z,101763.19
2023-03-03T05:38:19.717Z,101768.13
2023-03-03T05:40:47.303Z,101773.16
2023-03-03T05:43:14.120Z,101764.66
2023-03-03T05:45:40.824Z,101775.97
2023-03-03T05:48:07.553Z,101780.69
2023-03-03T05:50:34.242Z,101780.47
2023-03-03T05:53:01.014Z,101779.97
2023-03-03T05:55:28.000Z,101779.53
2023-03-03T05:57:55.667Z,101771.38
2023-03-03T06:00:22.900Z,101779.22
2023-03-03T06:02:49.668Z,101785.41
2023-03-03T06:05:16.348Z,101780.16
2023-03-03T06:07:43.181Z,101779.47
2023-03-03T06:10:13.764Z,101780.53
2023-03-03T06:12:42.520Z,101779.25
2023-03-03T06:15:10.441Z,101772.41
2023-03-03T06:17:37.205Z,101771.28
2023-03-03T06:20:04.461Z,101778.69
2023-03-03T06:22:31.923Z,101784.78
2023-03-03T06:24:58.599Z,101787.19
2023-03-03T06:27:25.429Z,101784.88
2023-03-03T06:29:52.144Z,101789.38
2023-03-03T06:32:18.918Z,101790.41
2023-03-03T06:34:45.597Z,101786.66
2023-03-03T06:37:12.230Z,101788.28
2023-03-03T06:39:39.146Z,101784.88
2023-03-03T06:42:07.194Z,101792.94
2023-03-03T06:44:33.948Z,101799.88
2023-03-03T06:47:00.830Z,101808.16
2023-03-03T06:49:27.592Z,101809.03
2023-03-03T06:51:54.614Z,101810.59
2023-03-03T06:54:30.296Z,101810.34
2023-03-03T06:57:13.927Z,101819.25
2023-03-03T06:59:41.397Z,101815.38
2023-03-03T07:02:17.477Z,101817.53
2023-03-03T07:04:46.918Z,101819.91
2023-03-03T07:07:20.705Z,101816.31
2023-03-03T07:09:55.483Z,101823.72
2023-03-03T07:12:30.741Z,101828.81
2023-03-03T07:15:18.484Z,101828.50
2023-03-03T07:17:50.929Z,101827.03
2023-03-03T07:20:21.900Z,101836.91
2023-03-03T07:22:48.618Z,101840.16
2023-03-03T07:25:35.408Z,101834.22
2023-03-03T07:28:33.041Z,101849.81
2023-03-03T07:31:00.027Z,101853.44
2023-03-03T07:33:38.004Z,101853.44
2023-03-03T07:36:19.828Z,101864.47
2023-03-03T07:38:54.701Z,101864.00
2023-03-03T07:41:23.487Z,101865.78
2023-03-03T07:43:55.021Z,101858.88
2023-03-03T07:46:24.966Z,101875.78
2023-03-03T07:48:53.141Z,101877.91
2023-03-03T07:51:25.194Z,101886.91
2023-03-03T07:53:54.258Z,101877.34
2023-03-03T07:56:30.873Z,101882.00
2023-03-03T07:58:58.627Z,101881.59
2023-03-03T08:01:44.757Z,101882.00
2023-03-03T08:04:40.861Z,101886.66
2023-03-03T08:07:26.221Z,101876.03
2023-03-03T08:09:59.926Z,101874.97
2023-03-03T08:12:42.870Z,101881.56
2023-03-03T08:15:36.807Z,101878.25
2023-03-03T08:18:19.529Z,101886.16
2023-03-03T08:20:48.329Z,101891.63
2023-03-03T08:23:16.581Z,101883.47
2023-03-03T08:25:43.865Z,101884.34
2023-03-03T08:28:11.724Z,101888.69
2023-03-03T08:30:38.835Z,101886.03
2023-03-03T08:33:05.712Z,101883.19
2023-03-03T08:35:32.501Z,101886.00
2023-03-03T08:37:59.430Z,101895.38
2023-03-03T08:40:26.166Z,101892.03
2023-03-03T08:42:54.392Z,101889.88
2023-03-03T08:45:21.735Z,101896.44
2023-03-03T08:47:48.517Z,101887.03
2023-03-03T08:50:15.386Z,101892.28
2023-03-03T08:52:42.218Z,101885.19
2023-03-03T08:55:09.650Z,101889.06
2023-03-03T08:57:39.150Z,101884.81
2023-03-03T09:00:12.931Z,101898.31
2023-03-03T09:02:39.914Z,101891.66
2023-03-03T09:05:07.343Z,101884.25
2023-03-03T09:07:34.676Z,101888.41
2023-03-03T09:10:01.996Z,101891.38
2023-03-03T09:12:38.437Z,101891.75
2023-03-03T09:15:14.710Z,101895.16
2023-03-03T09:17:41.657Z,101894.28
2023-03-03T09:20:35.661Z,101892.59
2023-03-03T09:23:24.433Z,101894.69
2023-03-03T09:25:52.753Z,101897.38
2023-03-03T09:28:25.449Z,101890.16
2023-03-03T09:30:54.532Z,101888.69
2023-03-03T09:33:44.919Z,101892.41
2023-03-03T09:36:24.317Z,101896.06
2023-03-03T09:38:51.189Z,101900.91
2023-03-03T09:41:17.860Z,101908.63
2023-03-03T09:44:12.245Z,101915.09
2023-03-03T09:46:54.202Z,101907.78
2023-03-03T09:50:00.688Z,101912.28
2023-03-03T09:52:57.275Z,101905.03
2023-03-03T09:55:57.333Z,101912.06
2023-03-03T09:58:29.748Z,101920.06
2023-03-03T10:01:05.680Z,101907.56
2023-03-03T10:03:32.340Z,101907.84
2023-03-03T10:06:20.699Z,101914.44
2023-03-03T10:09:09.011Z,101918.72
2023-03-03T10:11:49.994Z,101922.25
2023-03-03T10:14:49.353Z,101920.38
2023-03-03T10:17:54.325Z,101919.22
2023-03-03T10:20:40.435Z,101926.81
2023-03-03T10:23:29.596Z,101924.66
2023-03-03T10:26:05.721Z,101927.41
2023-03-03T10:28:35.410Z,101924.44
2023-03-03T10:31:37.732Z,101924.16
2023-03-03T10:34:29.820Z,101927.81
2023-03-03T10:37:31.114Z,101927.72
2023-03-03T10:40:24.014Z,101935.09
2023-03-03T10:43:08.783Z,101933.94
2023-03-03T10:45:57.889Z,101935.09
2023-03-03T10:48:42.876Z,101933.72
2023-03-03T10:51:18.588Z,101932.53
2023-03-03T10:54:04.265Z,101929.88
2023-03-03T10:56:52.173Z,101932.06
2023-03-03T10:59:57.637Z,101936.31
2023-03-03T11:02:42.052Z,101929.56
2023-03-03T11:05:27.112Z,101927.75
2023-03-03T11:08:02.266Z,101935.38
2023-03-03T11:10:35.191Z,101931.31
2023-03-03T11:13:11.210Z,101924.66
2023-03-03T11:15:44.644Z,101920.25
2023-03-03T11:18:23.836Z,101930.00
2023-03-03T11:20:59.706Z,101932.00
2023-03-03T11:23:43.555Z,101923.41
2023-03-03T11:26:16.050Z,101923.28
2023-03-03T11:29:13.186Z,101935.09
2023-03-03T11:31:53.644Z,101923.84
2023-03-03T11:34:45.130Z,101921.06
2023-03-03T11:37:20.209Z,101913.25
2023-03-03T11:39:49.371Z,101915.47
2023-03-03T11:42:17.219Z,101916.00
2023-03-03T11:44:50.029Z,101912.09
2023-03-03T11:47:19.490Z,101917.19
2023-03-03T11:49:58.046Z,101911.03
2023-03-03T11:52:40.584Z,101915.44
2023-03-03T11:55:17.521Z,101920.97
2023-03-03T11:58:14.462Z,101904.16
2023-03-03T12:00:58.616Z,101903.72
2023-03-03T12:03:40.593Z,101891.63
2023-03-03T12:06:12.518Z,101897.84
2023-03-03T12:09:07.990Z,101893.66
2023-03-03T12:11:43.286Z,101886.31
2023-03-03T12:14:12.883Z,101890.59
2023-03-03T12:16:58.719Z,101889.13
2023-03-03T12:19:28.192Z,101884.63
2023-03-03T12:22:22.667Z,101884.91
2023-03-03T12:25:17.531Z,101885.69
2023-03-03T12:27:53.396Z,101872.28
2023-03-03T12:30:35.933Z,101873.88
2023-03-03T12:33:14.897Z,101874.53
2023-03-03T12:36:06.599Z,101863.88
2023-03-03T12:39:01.817Z,101872.28
2023-03-03T12:41:39.691Z,101866.34
2023-03-03T12:44:38.944Z,101865.03
2023-03-03T12:47:35.015Z,101861.28
2023-03-03T12:50:25.456Z,101853.75
2023-03-03T12:53:02.749Z,101861.03
2023-03-03T12:55:50.573Z,101858.81
2023-03-03T12:58:29.462Z,101854.38
2023-03-03T13:00:59.258Z,101852.59
2023-03-03T13:03:54.912Z,101847.28
2023-03-03T13:06:33.291Z,101843.56
2023-03-03T13:09:03.078Z,101844.19
2023-03-03T13:12:03.514Z,101847.91
2023-03-03T13:14:43.747Z,101847.97
2023-03-03T13:17:37.230Z,101846.09
2023-03-03T13:20:17.195Z,101839.22
2023-03-03T13:22:55.800Z,101831.38
2023-03-03T13:25:50.337Z,101834.03
2023-03-03T13:28:23.471Z,101834.59
2023-03-03T13:30:56.709Z,101835.56
2023-03-03T13:33:30.977Z,101835.88
2023-03-03T13:36:10.416Z,101828.00
2023-03-03T13:38:42.770Z,101833.91
2023-03-03T13:41:34.030Z,101831.97
2023-03-03T13:44:15.365Z,101829.69
2023-03-03T13:46:58.362Z,101828.63
2023-03-03T13:49:37.295Z,101827.38
2023-03-03T13:52:08.837Z,101822.84
2023-03-03T13:54:41.687Z,101812.03
2023-03-03T13:57:27.976Z,101812.41
2023-03-03T14:00:18.314Z,101806.63
2023-03-03T14:03:08.223Z,101812.41
2023-03-03T14:05:39.239Z,101806.31
2023-03-03T14:08:36.997Z,101803.22
2023-03-03T14:11:12.480Z,101794.97
2023-03-03T14:14:00.385Z,101797.16
2023-03-03T14:16:33.167Z,101798.47
2023-03-03T14:19:05.796Z,101795.56
2023-03-03T14:21:43.809Z,101794.75
2023-03-03T14:24:20.170Z,101793.03
2023-03-03T14:26:52.036Z,101790.75
2023-03-03T14:29:27.960Z,101795.41
2023-03-03T14:32:01.556Z,101791.72
2023-03-03T14:34:39.354Z,101791.28
2023-03-03T14:37:26.307Z,101789.66
2023-03-03T14:40:30.668Z,101791.25
2023-03-03T14:43:03.897Z,101790.47
2023-03-03T14:45:39.568Z,101786.66
2023-03-03T14:48:27.470Z,101781.84
2023-03-03T14:51:15.708Z,101782.97
2023-03-03T14:53:48.062Z,101784.97
2023-03-03T14:56:49.471Z,101786.19
2023-03-03T14:59:23.878Z,101777.25
2023-03-03T15:02:16.767Z,101776.88
2023-03-03T15:04:45.842Z,101772.34
2023-03-03T15:07:28.040Z,101772.81
2023-03-03T15:09:54.901Z,101766.06
2023-03-03T15:12:42.220Z,101770.50
2023-03-03T15:15:20.878Z,101768.78
2023-03-03T15:17:50.656Z,101766.91
2023-03-03T15:20:35.996Z,101764.97
2023-03-03T15:23:27.461Z,101760.25
2023-03-03T15:25:58.811Z,101760.38
2023-03-03T15:28:44.553Z,101754.09
2023-03-03T15:31:17.540Z,101751.63
2023-03-03T15:33:53.391Z,101752.16
2023-03-03T15:36:32.386Z,101741.28
2023-03-03T15:39:41.818Z,101739.03
2023-03-03T15:42:13.790Z,101738.53
2023-03-03T15:45:27.205Z,101740.03
2023-03-03T15:48:03.978Z,101732.50
2023-03-03T15:50:39.209Z,101745.56
2023-03-03T15:53:40.946Z,101728.75
2023-03-03T15:56:11.075Z,101719.63
2023-03-03T15:59:02.756Z,101725.56
2023-03-03T16:01:32.168Z,101724.56
2023-03-03T16:04:04.388Z,101728.00
2023-03-03T16:06:38.220Z,101714.53
2023-03-03T16:09:28.220Z,101724.00
2023-03-03T16:12:01.230Z,101720.69
2023-03-03T16:14:30.994Z,101733.78
2023-03-03T16:17:28.938Z,101734.03
2023-03-03T16:19:55.642Z,101722.31
2023-03-03T16:22:46.831Z,101729.06
2023-03-03T16:25:20.608Z,101735.63
2023-03-03T16:28:31.050Z,101728.00
2023-03-03T16:31:13.263Z,101734.28
2023-03-03T16:33:52.048Z,101729.78
2023-03-03T16:36:38.397Z,101722.19
2023-03-03T16:39:33.903Z,101730.75
2023-03-03T16:42:06.662Z,101723.53
2023-03-03T16:44:54.990Z,101736.28
2023-03-03T16:47:38.954Z,101723.72
2023-03-03T16:50:27.298Z,101729.88
2023-03-03T16:53:13.046Z,101732.28
2023-03-03T16:55:45.846Z,101725.56
2023-03-03T16:58:40.790Z,101732.06
2023-03-03T17:01:26.591Z,101732.25
2023-03-03T17:04:22.390Z,101729.06
2023-03-03T17:06:59.728Z,101726.16
2023-03-03T17:09:45.350Z,101731.00
2023-03-03T17:12:18.077Z,101737.66
2023-03-03T17:15:05.527Z,101731.53
2023-03-03T17:17:50.501Z,101733.66
2023-03-03T17:20:20.125Z,101731.69
2023-03-03T17:23:20.260Z,101733.16
2023-03-03T17:25:56.316Z,101733.75
2023-03-03T17:28:43.119Z,101743.41
2023-03-03T17:31:12.642Z,101740.84
2023-03-03T17:34:11.632Z,101741.56
2023-03-03T17:36:45.847Z,101742.63
2023-03-03T17:39:20.099Z,101745.19
2023-03-03T17:42:14.484Z,101742.53
2023-03-03T17:44:55.938Z,101742.28
2023-03-03T17:47:45.608Z,101745.28
2023-03-03T17:50:15.674Z,101752.94
2023-03-03T17:52:48.775Z,101747.06
2023-03-03T17:55:21.360Z,101747.94
2023-03-03T17:58:09.905Z,101759.16
2023-03-03T18:00:55.849Z,101756.78
2023-03-03T18:03:36.114Z,101755.78
2023-03-03T18:06:32.164Z,101756.56
2023-03-03T18:09:14.216Z,101758.56
2023-03-03T18:12:11.076Z,101763.72
2023-03-03T18:14:46.946Z,101758.34
2023-03-03T18:17:36.430Z,101765.41
2023-03-03T18:20:39.263Z,101761.88
2023-03-03T18:23:31.752Z,101763.31
2023-03-03T18:26:41.645Z,101764.47
2023-03-03T18:29:17.414Z,101767.75
2023-03-03T18:31:52.776Z,101772.69
2023-03-03T18:34:22.410Z,101778.78
2023-03-03T18:36:56.634Z,101774.53
2023-03-03T18:39:46.936Z,101775.19
2023-03-03T18:42:16.710Z,101784.28
2023-03-03T18:44:47.888Z,101778.97
2023-03-03T18:47:15.505Z,101773.63
2023-03-03T18:49:52.736Z,101779.63
2023-03-03T18:52:28.993Z,101773.00
2023-03-03T18:55:11.474Z,101781.69
2023-03-03T18:57:40.460Z,101777.75
2023-03-03T19:00:22.739Z,101790.47
2023-03-03T19:02:59.025Z,101791.03
2023-03-03T19:05:28.758Z,101781.56
2023-03-03T19:08:02.148Z,101788.09
2023-03-03T19:10:51.029Z,101776.78
2023-03-03T19:13:33.127Z,101785.69
2023-03-03T19:16:04.412Z,101777.09
2023-03-03T19:18:55.518Z,101784.25
2023-03-03T19:21:32.441Z,101789.16
2023-03-03T19:24:02.023Z,101779.84
2023-03-03T19:26:34.758Z,101775.56
2023-03-03T19:29:26.813Z,101770.06
2023-03-03T19:32:09.435Z,101774.88
2023-03-03T19:35:06.744Z,101774.59
2023-03-03T19:37:39.327Z,101782.28
2023-03-03T19:40:28.090Z,101781.91
2023-03-03T19:43:15.831Z,101777.44
2023-03-03T19:45:51.485Z,101781.13
2023-03-03T19:48:36.762Z,101771.56
2023-03-03T19:51:27.788Z,101783.53
2023-03-03T19:54:09.698Z,101775.09
2023-03-03T19:56:51.084Z,101774.53
2023-03-03T19:59:31.507Z,101779.13
2023-03-03T20:02:38.066Z,101781.94
2023-03-03T20:05:14.596Z,101779.69
2023-03-03T20:07:48.678Z,101786.84
2023-03-03T20:10:57.281Z,101774.22
2023-03-03T20:13:48.324Z,101777.53
2023-03-03T20:16:27.768Z,101784.09
2023-03-03T20:19:03.551Z,101784.66
2023-03-03T20:21:38.907Z,101778.00
2023-03-03T20:24:40.937Z,101774.94
2023-03-03T20:27:19.971Z,101780.91
2023-03-03T20:29:55.526Z,101774.34
2023-03-03T20:32:51.334Z,101779.69
2023-03-03T20:35:47.458Z,101769.94
2023-03-03T20:38:51.773Z,101776.88
2023-03-03T20:41:21.622Z,101775.22
2023-03-03T20:43:57.593Z,101777.59
2023-03-03T20:46:32.188Z,101773.09
2023-03-03T20:49:01.649Z,101776.53
2023-03-03T20:52:05.676Z,101773.72
2023-03-03T20:55:10.212Z,101762.88
2023-03-03T20:57:47.081Z,101766.22
2023-03-03T21:00:25.452Z,101761.81
2023-03-03T21:03:34.155Z,101762.50
2023-03-03T21:06:20.913Z,101767.53
2023-03-03T21:08:48.513Z,101771.53
2023-03-03T21:11:18.920Z,101773.56
2023-03-03T21:13:52.149Z,101778.38
2023-03-03T21:16:21.956Z,101775.09
2023-03-03T21:19:06.168Z,101770.16
2023-03-03T21:21:38.512Z,101771.38
2023-03-03T21:24:06.489Z,101778.19
2023-03-03T21:26:45.918Z,101775.34
2023-03-03T21:29:23.174Z,101777.03
2023-03-03T21:32:01.092Z,101782.59
2023-03-03T21:34:33.621Z,101774.09
2023-03-03T21:37:07.107Z,101780.63
2023-03-03T21:39:39.152Z,101772.00
2023-03-03T21:42:07.493Z,101769.94
2023-03-03T21:45:01.057Z,101766.56
2023-03-03T21:47:29.181Z,101764.84
2023-03-03T21:49:55.885Z,101770.97
2023-03-03T21:52:22.885Z,101764.94
2023-03-03T21:54:51.603Z,101764.47
2023-03-03T21:57:18.417Z,101763.66
2023-03-03T21:59:45.088Z,101759.72
2023-03-03T22:02:11.825Z,101768.19
2023-03-03T22:04:38.914Z,101771.94
2023-03-03T22:07:05.717Z,101768.25
2023-03-03T22:09:32.442Z,101764.84
2023-03-03T22:11:59.193Z,101763.16
2023-03-03T22:14:25.973Z,101759.78
2023-03-03T22:16:52.759Z,101757.78
2023-03-03T22:19:19.460Z,101758.75
2023-03-03T22:21:47.380Z,101760.84
2023-03-03T22:24:14.110Z,101755.81
2023-03-03T22:26:40.847Z,101754.00
2023-03-03T22:29:08.824Z,101749.31
2023-03-03T22:31:35.624Z,101761.25
2023-03-03T22:34:02.497Z,101757.38
2023-03-03T22:36:29.213Z,101749.63
2023-03-03T22:38:55.927Z,101753.91
2023-03-03T22:41:22.627Z,101758.97
2023-03-03T22:43:49.538Z,101756.31
2023-03-03T22:46:16.283Z,101753.19
2023-03-03T22:48:43.098Z,101752.03
2023-03-03T22:51:09.839Z,101747.22
2023-03-03T22:53:36.574Z,101748.81
2023-03-03T22:56:03.493Z,101738.50
2023-03-03T22:58:30.889Z,101738.19
2023-03-03T23:00:57.610Z,101734.56
2023-03-03T23:03:24.841Z,101733.84
2023-03-03T23:05:52.132Z,101734.41
2023-03-03T23:08:20.574Z,101738.97
2023-03-03T23:10:48.345Z,101738.28
2023-03-03T23:13:15.610Z,101739.88
2023-03-03T23:15:43.172Z,101738.84
2023-03-03T23:18:10.193Z,101739.97
2023-03-03T23:20:37.414Z,101739.31
2023-03-03T23:23:04.348Z,101727.22
2023-03-03T23:25:31.230Z,101733.06
2023-03-03T23:27:57.966Z,101742.22
2023-03-03T23:30:25.299Z,101728.53
2023-03-03T23:32:52.189Z,101733.34
2023-03-03T23:35:22.142Z,101722.69
2023-03-03T23:37:48.943Z,101723.84
2023-03-03T23:40:16.724Z,101730.47
2023-03-03T23:42:43.802Z,101732.38
2023-03-03T23:45:13.286Z,101724.94
2023-03-03T23:47:40.130Z,101729.66
2023-03-03T23:50:07.767Z,101727.56
2023-03-03T23:52:34.632Z,101728.75
2023-03-03T23:55:01.561Z,101724.97
2023-03-03T23:57:28.350Z,101730.09
2023-03-03T23:59:55.045Z,101735.22
